sensor_id;sensor_type;location;lat;lon;timestamp;pressure;altitude;pressure_sealevel;temperature;humidity
18795;BME280;29610;49.022;12.114;2023-07-09T00:02:18;98076.06;;;19.24;100.00
18795;BME280;29610;49.022;12.114;2023-07-09T00:04:46;98081.38;;;19.13;100.00
18795;BME280;29610;49.022;12.114;2023-07-09T00:07:22;98080.84;;;18.62;100.00
18795;BME280;29610;49.022;12.114;2023-07-09T00:09:53;98081.38;;;18.68;100.00
18795;BME280;29610;49.022;12.114;2023-07-09T00:12:23;98088.63;;;18.57;100.00
18795;BME280;29610;49.022;12.114;2023-07-09T00:14:51;98093.91;;;18.46;100.00
18795;BME280;29610;49.022;12.114;2023-07-09T00:17:27;98095.88;;;18.46;100.00
18795;BME280;29610;49.022;12.114;2023-07-09T00:19:57;98102.25;;;18.50;100.00
18795;BME280;29610;49.022;12.114;2023-07-09T00:22:26;98095.94;;;18.49;100.00
18795;BME280;29610;49.022;12.114;2023-07-09T00:24:55;98096.94;;;18.41;100.00
18795;BME280;29610;49.022;12.114;2023-07-09T00:27:28;98089.84;;;18.40;100.00
18795;BME280;29610;49.022;12.114;2023-07-09T00:29:58;98096.25;;;18.10;100.00
18795;BME280;29610;49.022;12.114;2023-07-09T00:32:29;98095.13;;;17.95;100.00
18795;BME280;29610;49.022;12.114;2023-07-09T00:34:58;98093.28;;;17.99;100.00
18795;BME280;29610;49.022;12.114;2023-07-09T00:37:27;98087.59;;;18.08;100.00
18795;BME280;29610;49.022;12.114;2023-07-09T00:39:56;98090.72;;;18.25;100.00
18795;BME280;29610;49.022;12.114;2023-07-09T00:42:24;98093.03;;;18.23;100.00
18795;BME280;29610;49.022;12.114;2023-07-09T00:44:54;98089.63;;;18.11;100.00
18795;BME280;29610;49.022;12.114;2023-07-09T00:47:31;98099.41;;;17.93;100.00
18795;BME280;29610;49.022;12.114;2023-07-09T00:50:31;98102.38;;;18.03;100.00
18795;BME280;29610;49.022;12.114;2023-07-09T00:53:08;98094.53;;;18.21;100.00
18795;BME280;29610;49.022;12.114;2023-07-09T00:55:41;98091.41;;;18.22;100.00
18795;BME280;29610;49.022;12.114;2023-07-09T00:58:14;98097.50;;;18.12;100.00
18795;BME280;29610;49.022;12.114;2023-07-09T01:00:49;98093.59;;;18.32;100.00
18795;BME280;29610;49.022;12.114;2023-07-09T01:03:28;98093.66;;;18.36;100.00
18795;BME280;29610;49.022;12.114;2023-07-09T01:05:58;98100.69;;;18.33;100.00
18795;BME280;29610;49.022;12.114;2023-07-09T01:08:30;98105.41;;;18.33;100.00
18795;BME280;29610;49.022;12.114;2023-07-09T01:10:59;98109.53;;;18.23;100.00
18795;BME280;29610;49.022;12.114;2023-07-09T01:13:31;98119.50;;;18.12;100.00
18795;BME280;29610;49.022;12.114;2023-07-09T01:16:02;98123.16;;;18.01;100.00
18795;BME280;29610;49.022;12.114;2023-07-09T01:18:36;98124.59;;;17.95;100.00
18795;BME280;29610;49.022;12.114;2023-07-09T01:21:10;98120.47;;;17.85;100.00
18795;BME280;29610;49.022;12.114;2023-07-09T01:23:43;98120.91;;;17.72;100.00
18795;BME280;29610;49.022;12.114;2023-07-09T01:26:14;98123.22;;;17.70;100.00
18795;BME280;29610;49.022;12.114;2023-07-09T01:28:44;98113.13;;;17.74;100.00
18795;BME280;29610;49.022;12.114;2023-07-09T01:31:14;98119.31;;;17.86;100.00
18795;BME280;29610;49.022;12.114;2023-07-09T01:33:44;98122.09;;;17.71;100.00
18795;BME280;29610;49.022;12.114;2023-07-09T01:36:17;98124.97;;;17.78;100.00
18795;BME280;29610;49.022;12.114;2023-07-09T01:38:51;98128.72;;;17.85;100.00
18795;BME280;29610;49.022;12.114;2023-07-09T01:41:20;98120.09;;;17.71;100.00
18795;BME280;29610;49.022;12.114;2023-07-09T01:43:51;98118.63;;;17.74;100.00
18795;BME280;29610;49.022;12.114;2023-07-09T01:46:20;98124.38;;;17.69;100.00
18795;BME280;29610;49.022;12.114;2023-07-09T01:48:48;98115.34;;;17.68;100.00
18795;BME280;29610;49.022;12.114;2023-07-09T01:51:21;98119.50;;;17.62;100.00
18795;BME280;29610;49.022;12.114;2023-07-09T01:53:51;98114.03;;;17.62;100.00
18795;BME280;29610;49.022;12.114;2023-07-09T01:56:21;98123.22;;;17.38;100.00
18795;BME280;29610;49.022;12.114;2023-07-09T01:58:51;98128.38;;;17.40;100.00
18795;BME280;29610;49.022;12.114;2023-07-09T02:01:20;98137.28;;;17.06;100.00
18795;BME280;29610;49.022;12.114;2023-07-09T02:03:48;98128.06;;;16.98;100.00
18795;BME280;29610;49.022;12.114;2023-07-09T02:06:17;98136.53;;;16.78;100.00
18795;BME280;29610;49.022;12.114;2023-07-09T02:08:48;98138.19;;;16.94;100.00
18795;BME280;29610;49.022;12.114;2023-07-09T02:11:16;98139.91;;;16.87;100.00
18795;BME280;29610;49.022;12.114;2023-07-09T02:13:45;98138.00;;;17.03;100.00
18795;BME280;29610;49.022;12.114;2023-07-09T02:16:13;98133.06;;;17.08;100.00
18795;BME280;29610;49.022;12.114;2023-07-09T02:18:42;98132.50;;;17.18;100.00
18795;BME280;29610;49.022;12.114;2023-07-09T02:21:10;98129.66;;;16.99;100.00
18795;BME280;29610;49.022;12.114;2023-07-09T02:23:39;98122.69;;;17.02;100.00
18795;BME280;29610;49.022;12.114;2023-07-09T02:26:09;98119.72;;;16.79;100.00
18795;BME280;29610;49.022;12.114;2023-07-09T02:28:38;98134.97;;;16.77;100.00
18795;BME280;29610;49.022;12.114;2023-07-09T02:31:07;98135.59;;;16.58;100.00
18795;BME280;29610;49.022;12.114;2023-07-09T02:33:35;98143.97;;;16.38;100.00
18795;BME280;29610;49.022;12.114;2023-07-09T02:36:05;98136.91;;;16.37;100.00
18795;BME280;29610;49.022;12.114;2023-07-09T02:38:34;98143.34;;;16.29;100.00
18795;BME280;29610;49.022;12.114;2023-07-09T02:41:03;98141.13;;;16.34;100.00
18795;BME280;29610;49.022;12.114;2023-07-09T02:43:33;98149.00;;;16.36;100.00
18795;BME280;29610;49.022;12.114;2023-07-09T02:46:02;98152.38;;;16.17;100.00
18795;BME280;29610;49.022;12.114;2023-07-09T02:48:31;98156.75;;;16.06;100.00
18795;BME280;29610;49.022;12.114;2023-07-09T02:50:59;98159.72;;;16.13;100.00
18795;BME280;29610;49.022;12.114;2023-07-09T02:53:28;98159.41;;;16.42;100.00
18795;BME280;29610;49.022;12.114;2023-07-09T02:55:57;98163.53;;;16.36;100.00
18795;BME280;29610;49.022;12.114;2023-07-09T02:58:26;98160.50;;;16.26;100.00
18795;BME280;29610;49.022;12.114;2023-07-09T03:00:57;98162.41;;;16.25;100.00
18795;BME280;29610;49.022;12.114;2023-07-09T03:03:25;98163.25;;;16.13;100.00
18795;BME280;29610;49.022;12.114;2023-07-09T03:05:56;98161.63;;;16.25;100.00
18795;BME280;29610;49.022;12.114;2023-07-09T03:08:24;98173.75;;;16.11;100.00
18795;BME280;29610;49.022;12.114;2023-07-09T03:10:53;98174.44;;;16.08;100.00
18795;BME280;29610;49.022;12.114;2023-07-09T03:13:21;98169.59;;;16.30;100.00
18795;BME280;29610;49.022;12.114;2023-07-09T03:15:58;98170.06;;;16.20;100.00
18795;BME280;29610;49.022;12.114;2023-07-09T03:18:26;98179.03;;;16.04;100.00
18795;BME280;29610;49.022;12.114;2023-07-09T03:20:55;98171.47;;;16.13;100.00
18795;BME280;29610;49.022;12.114;2023-07-09T03:23:24;98181.16;;;16.35;100.00
18795;BME280;29610;49.022;12.114;2023-07-09T03:25:52;98181.59;;;16.49;100.00
18795;BME280;29610;49.022;12.114;2023-07-09T03:28:21;98187.69;;;16.31;100.00
18795;BME280;29610;49.022;12.114;2023-07-09T03:30:54;98187.97;;;16.41;100.00
18795;BME280;29610;49.022;12.114;2023-07-09T03:33:24;98185.59;;;16.40;100.00
18795;BME280;29610;49.022;12.114;2023-07-09T03:35:53;98183.75;;;16.56;100.00
18795;BME280;29610;49.022;12.114;2023-07-09T03:38:22;98182.59;;;16.57;100.00
18795;BME280;29610;49.022;12.114;2023-07-09T03:40:53;98184.38;;;16.65;100.00
18795;BME280;29610;49.022;12.114;2023-07-09T03:43:26;98196.34;;;16.45;100.00
18795;BME280;29610;49.022;12.114;2023-07-09T03:45:54;98197.25;;;16.25;100.00
18795;BME280;29610;49.022;12.114;2023-07-09T03:48:24;98193.72;;;16.48;100.00
18795;BME280;29610;49.022;12.114;2023-07-09T03:50:53;98192.31;;;16.42;100.00
18795;BME280;29610;49.022;12.114;2023-07-09T03:53:21;98191.50;;;16.66;100.00
18795;BME280;29610;49.022;12.114;2023-07-09T03:55:53;98194.22;;;16.93;100.00
18795;BME280;29610;49.022;12.114;2023-07-09T03:58:23;98193.34;;;16.89;100.00
18795;BME280;29610;49.022;12.114;2023-07-09T04:00:52;98193.13;;;16.82;100.00
18795;BME280;29610;49.022;12.114;2023-07-09T04:03:23;98193.78;;;16.64;100.00
18795;BME280;29610;49.022;12.114;2023-07-09T04:05:56;98197.03;;;16.81;100.00
18795;BME280;29610;49.022;12.114;2023-07-09T04:08:24;98193.16;;;16.98;100.00
18795;BME280;29610;49.022;12.114;2023-07-09T04:11:03;98192.25;;;17.21;100.00
18795;BME280;29610;49.022;12.114;2023-07-09T04:13:31;98195.59;;;17.15;100.00
18795;BME280;29610;49.022;12.114;2023-07-09T04:16:00;98191.81;;;16.92;100.00
18795;BME280;29610;49.022;12.114;2023-07-09T04:18:31;98202.69;;;17.16;100.00
18795;BME280;29610;49.022;12.114;2023-07-09T04:20:59;98201.94;;;17.31;100.00
18795;BME280;29610;49.022;12.114;2023-07-09T04:23:28;98200.41;;;17.33;100.00
18795;BME280;29610;49.022;12.114;2023-07-09T04:25:56;98200.53;;;17.52;100.00
18795;BME280;29610;49.022;12.114;2023-07-09T04:28:25;98197.44;;;17.54;100.00
18795;BME280;29610;49.022;12.114;2023-07-09T04:30:54;98196.91;;;17.64;100.00
18795;BME280;29610;49.022;12.114;2023-07-09T04:33:22;98198.34;;;17.74;100.00
18795;BME280;29610;49.022;12.114;2023-07-09T04:35:52;98206.22;;;17.75;100.00
18795;BME280;29610;49.022;12.114;2023-07-09T04:38:21;98204.09;;;17.84;100.00
18795;BME280;29610;49.022;12.114;2023-07-09T04:40:50;98201.34;;;17.69;100.00
18795;BME280;29610;49.022;12.114;2023-07-09T04:43:18;98197.69;;;17.96;100.00
18795;BME280;29610;49.022;12.114;2023-07-09T04:45:47;98202.25;;;18.23;100.00
18795;BME280;29610;49.022;12.114;2023-07-09T04:48:15;98200.91;;;18.32;100.00
18795;BME280;29610;49.022;12.114;2023-07-09T04:50:44;98201.75;;;18.52;100.00
18795;BME280;29610;49.022;12.114;2023-07-09T04:53:20;98205.19;;;18.64;100.00
18795;BME280;29610;49.022;12.114;2023-07-09T04:55:51;98204.44;;;18.86;100.00
18795;BME280;29610;49.022;12.114;2023-07-09T04:58:19;98204.16;;;18.91;100.00
18795;BME280;29610;49.022;12.114;2023-07-09T05:00:48;98206.63;;;18.97;100.00
18795;BME280;29610;49.022;12.114;2023-07-09T05:03:18;98213.78;;;19.20;100.00
18795;BME280;29610;49.022;12.114;2023-07-09T05:05:47;98206.75;;;19.42;100.00
18795;BME280;29610;49.022;12.114;2023-07-09T05:08:18;98212.22;;;19.61;100.00
18795;BME280;29610;49.022;12.114;2023-07-09T05:10:50;98211.19;;;19.72;100.00
18795;BME280;29610;49.022;12.114;2023-07-09T05:13:19;98212.16;;;19.57;100.00
18795;BME280;29610;49.022;12.114;2023-07-09T05:15:49;98211.78;;;19.81;100.00
18795;BME280;29610;49.022;12.114;2023-07-09T05:18:18;98206.31;;;19.85;100.00
18795;BME280;29610;49.022;12.114;2023-07-09T05:20:47;98209.25;;;19.95;100.00
18795;BME280;29610;49.022;12.114;2023-07-09T05:23:17;98214.22;;;19.86;100.00
18795;BME280;29610;49.022;12.114;2023-07-09T05:25:45;98220.94;;;19.89;100.00
18795;BME280;29610;49.022;12.114;2023-07-09T05:28:14;98214.22;;;19.86;100.00
18795;BME280;29610;49.022;12.114;2023-07-09T05:30:43;98212.97;;;19.84;100.00
18795;BME280;29610;49.022;12.114;2023-07-09T05:33:11;98217.09;;;20.16;100.00
18795;BME280;29610;49.022;12.114;2023-07-09T05:35:42;98216.84;;;20.28;100.00
18795;BME280;29610;49.022;12.114;2023-07-09T05:38:10;98219.16;;;20.49;100.00
18795;BME280;29610;49.022;12.114;2023-07-09T05:40:41;98218.72;;;20.47;100.00
18795;BME280;29610;49.022;12.114;2023-07-09T05:43:10;98217.22;;;20.53;100.00
18795;BME280;29610;49.022;12.114;2023-07-09T05:45:39;98218.59;;;20.66;100.00
18795;BME280;29610;49.022;12.114;2023-07-09T05:48:08;98218.78;;;20.80;100.00
18795;BME280;29610;49.022;12.114;2023-07-09T05:50:36;98225.03;;;21.06;100.00
18795;BME280;29610;49.022;12.114;2023-07-09T05:53:05;98215.47;;;21.30;100.00
18795;BME280;29610;49.022;12.114;2023-07-09T05:55:33;98222.97;;;21.69;100.00
18795;BME280;29610;49.022;12.114;2023-07-09T05:58:03;98224.69;;;21.81;100.00
18795;BME280;29610;49.022;12.114;2023-07-09T06:00:31;98224.53;;;22.11;100.00
18795;BME280;29610;49.022;12.114;2023-07-09T06:03:00;98223.91;;;22.35;100.00
18795;BME280;29610;49.022;12.114;2023-07-09T06:05:30;98227.66;;;22.53;100.00
18795;BME280;29610;49.022;12.114;2023-07-09T06:07:58;98230.16;;;22.79;100.00
18795;BME280;29610;49.022;12.114;2023-07-09T06:10:27;98228.28;;;23.00;100.00
18795;BME280;29610;49.022;12.114;2023-07-09T06:12:56;98213.25;;;23.08;100.00
18795;BME280;29610;49.022;12.114;2023-07-09T06:15:26;98223.31;;;23.55;100.00
18795;BME280;29610;49.022;12.114;2023-07-09T06:17:55;98218.97;;;23.82;100.00
18795;BME280;29610;49.022;12.114;2023-07-09T06:20:23;98225.00;;;24.09;100.00
18795;BME280;29610;49.022;12.114;2023-07-09T06:22:52;98213.09;;;24.19;100.00
18795;BME280;29610;49.022;12.114;2023-07-09T06:25:20;98214.25;;;24.42;100.00
18795;BME280;29610;49.022;12.114;2023-07-09T06:27:49;98215.41;;;24.48;100.00
18795;BME280;29610;49.022;12.114;2023-07-09T06:30:17;98217.34;;;24.80;100.00
18795;BME280;29610;49.022;12.114;2023-07-09T06:32:48;98217.69;;;24.96;100.00
18795;BME280;29610;49.022;12.114;2023-07-09T06:35:16;98218.81;;;25.16;100.00
18795;BME280;29610;49.022;12.114;2023-07-09T06:37:45;98226.69;;;25.24;100.00
18795;BME280;29610;49.022;12.114;2023-07-09T06:40:13;98235.41;;;25.33;100.00
18795;BME280;29610;49.022;12.114;2023-07-09T06:42:42;98234.16;;;25.48;100.00
18795;BME280;29610;49.022;12.114;2023-07-09T06:45:20;98234.00;;;25.73;100.00
18795;BME280;29610;49.022;12.114;2023-07-09T06:47:50;98232.34;;;25.82;100.00
18795;BME280;29610;49.022;12.114;2023-07-09T06:50:19;98227.44;;;26.04;100.00
18795;BME280;29610;49.022;12.114;2023-07-09T06:52:48;98230.06;;;26.22;100.00
18795;BME280;29610;49.022;12.114;2023-07-09T06:55:16;98232.81;;;26.29;100.00
18795;BME280;29610;49.022;12.114;2023-07-09T06:57:45;98227.19;;;26.36;100.00
18795;BME280;29610;49.022;12.114;2023-07-09T07:00:14;98231.31;;;26.61;100.00
18795;BME280;29610;49.022;12.114;2023-07-09T07:02:43;98232.34;;;26.78;100.00
18795;BME280;29610;49.022;12.114;2023-07-09T07:05:12;98233.53;;;26.80;100.00
18795;BME280;29610;49.022;12.114;2023-07-09T07:07:41;98240.19;;;26.90;100.00
18795;BME280;29610;49.022;12.114;2023-07-09T07:10:10;98238.50;;;26.96;100.00
18795;BME280;29610;49.022;12.114;2023-07-09T07:12:44;98227.44;;;27.19;100.00
18795;BME280;29610;49.022;12.114;2023-07-09T07:15:15;98231.38;;;27.29;100.00
18795;BME280;29610;49.022;12.114;2023-07-09T07:17:44;98233.22;;;27.39;100.00
18795;BME280;29610;49.022;12.114;2023-07-09T07:20:16;98235.69;;;27.63;100.00
18795;BME280;29610;49.022;12.114;2023-07-09T07:22:45;98224.03;;;27.68;100.00
18795;BME280;29610;49.022;12.114;2023-07-09T07:25:13;98235.09;;;27.75;100.00
18795;BME280;29610;49.022;12.114;2023-07-09T07:27:42;98230.69;;;28.04;100.00
18795;BME280;29610;49.022;12.114;2023-07-09T07:30:11;98229.31;;;28.16;99.13
18795;BME280;29610;49.022;12.114;2023-07-09T07:32:45;98225.78;;;28.35;100.00
18795;BME280;29610;49.022;12.114;2023-07-09T07:35:16;98226.19;;;28.56;94.54
18795;BME280;29610;49.022;12.114;2023-07-09T07:37:45;98217.63;;;28.87;93.02
18795;BME280;29610;49.022;12.114;2023-07-09T07:40:14;98222.63;;;28.56;96.04
18795;BME280;29610;49.022;12.114;2023-07-09T07:42:42;98227.53;;;28.48;99.89
18795;BME280;29610;49.022;12.114;2023-07-09T07:45:11;98213.84;;;28.97;95.89
18795;BME280;29610;49.022;12.114;2023-07-09T07:47:39;98220.97;;;29.21;92.56
18795;BME280;29610;49.022;12.114;2023-07-09T07:50:09;98217.28;;;29.43;90.49
18795;BME280;29610;49.022;12.114;2023-07-09T07:52:39;98221.13;;;29.69;89.60
18795;BME280;29610;49.022;12.114;2023-07-09T07:55:09;98225.63;;;29.98;89.15
18795;BME280;29610;49.022;12.114;2023-07-09T07:57:43;98213.91;;;30.20;80.34
18795;BME280;29610;49.022;12.114;2023-07-09T08:00:14;98208.47;;;30.29;80.84
18795;BME280;29610;49.022;12.114;2023-07-09T08:02:43;98214.47;;;30.75;77.02
18795;BME280;29610;49.022;12.114;2023-07-09T08:05:11;98213.81;;;31.00;72.54
18795;BME280;29610;49.022;12.114;2023-07-09T08:07:41;98212.03;;;31.06;73.26
18795;BME280;29610;49.022;12.114;2023-07-09T08:10:12;98211.69;;;31.16;71.96
18795;BME280;29610;49.022;12.114;2023-07-09T08:12:42;98207.72;;;31.30;69.50
18795;BME280;29610;49.022;12.114;2023-07-09T08:15:11;98209.41;;;31.27;68.92
18795;BME280;29610;49.022;12.114;2023-07-09T08:17:39;98208.66;;;31.52;71.25
18795;BME280;29610;49.022;12.114;2023-07-09T08:20:09;98205.53;;;31.21;64.93
18795;BME280;29610;49.022;12.114;2023-07-09T08:22:38;98199.44;;;31.52;69.13
18795;BME280;29610;49.022;12.114;2023-07-09T08:25:09;98200.16;;;31.93;64.86
18795;BME280;29610;49.022;12.114;2023-07-09T08:27:37;98199.69;;;32.20;61.09
18795;BME280;29610;49.022;12.114;2023-07-09T08:30:07;98192.13;;;32.29;62.51
18795;BME280;29610;49.022;12.114;2023-07-09T08:32:36;98197.53;;;32.24;57.31
18795;BME280;29610;49.022;12.114;2023-07-09T08:35:05;98187.84;;;32.71;55.60
18795;BME280;29610;49.022;12.114;2023-07-09T08:37:38;98195.88;;;32.95;55.99
18795;BME280;29610;49.022;12.114;2023-07-09T08:40:15;98192.34;;;33.03;54.35
18795;BME280;29610;49.022;12.114;2023-07-09T08:42:53;98185.47;;;33.47;52.06
18795;BME280;29610;49.022;12.114;2023-07-09T08:45:44;98191.63;;;33.33;52.70
18795;BME280;29610;49.022;12.114;2023-07-09T08:48:23;98191.38;;;33.80;48.63
18795;BME280;29610;49.022;12.114;2023-07-09T08:50:59;98200.94;;;34.13;48.49
18795;BME280;29610;49.022;12.114;2023-07-09T08:53:44;98193.19;;;34.53;48.15
18795;BME280;29610;49.022;12.114;2023-07-09T08:56:17;98188.97;;;34.76;49.23
18795;BME280;29610;49.022;12.114;2023-07-09T08:58:48;98186.31;;;34.72;49.37
18795;BME280;29610;49.022;12.114;2023-07-09T09:01:22;98182.53;;;35.20;46.00
18795;BME280;29610;49.022;12.114;2023-07-09T09:04:04;98184.66;;;35.62;44.22
18795;BME280;29610;49.022;12.114;2023-07-09T09:06:34;98182.44;;;35.66;43.16
18795;BME280;29610;49.022;12.114;2023-07-09T09:09:12;98184.63;;;35.71;44.13
18795;BME280;29610;49.022;12.114;2023-07-09T09:11:49;98185.91;;;36.02;42.72
18795;BME280;29610;49.022;12.114;2023-07-09T09:14:31;98188.75;;;36.26;40.34
18795;BME280;29610;49.022;12.114;2023-07-09T09:17:02;98185.78;;;36.53;41.00
18795;BME280;29610;49.022;12.114;2023-07-09T09:19:38;98180.25;;;36.35;41.67
18795;BME280;29610;49.022;12.114;2023-07-09T09:22:13;98182.44;;;36.54;40.97
18795;BME280;29610;49.022;12.114;2023-07-09T09:24:56;98182.06;;;36.14;41.74
18795;BME280;29610;49.022;12.114;2023-07-09T09:27:28;98181.38;;;36.52;41.03
18795;BME280;29610;49.022;12.114;2023-07-09T09:29:56;98179.22;;;36.47;40.33
18795;BME280;29610;49.022;12.114;2023-07-09T09:32:27;98179.94;;;36.95;40.66
18795;BME280;29610;49.022;12.114;2023-07-09T09:34:56;98175.09;;;37.10;38.81
18795;BME280;29610;49.022;12.114;2023-07-09T09:37:29;98174.06;;;37.36;37.75
18795;BME280;29610;49.022;12.114;2023-07-09T09:40:00;98172.03;;;36.84;39.65
18795;BME280;29610;49.022;12.114;2023-07-09T09:42:46;98172.06;;;36.99;40.29
18795;BME280;29610;49.022;12.114;2023-07-09T09:45:18;98177.44;;;37.55;38.88
18795;BME280;29610;49.022;12.114;2023-07-09T09:47:48;98169.72;;;37.84;37.72
18795;BME280;29610;49.022;12.114;2023-07-09T09:50:20;98178.97;;;37.99;37.50
18795;BME280;29610;49.022;12.114;2023-07-09T09:52:49;98166.03;;;37.78;36.48
18795;BME280;29610;49.022;12.114;2023-07-09T09:55:22;98181.19;;;37.46;37.13
18795;BME280;29610;49.022;12.114;2023-07-09T09:57:53;98180.13;;;38.07;37.47
18795;BME280;29610;49.022;12.114;2023-07-09T10:00:25;98174.09;;;38.55;36.11
18795;BME280;29610;49.022;12.114;2023-07-09T10:03:46;98172.38;;;37.88;34.25
18795;BME280;29610;49.022;12.114;2023-07-09T10:06:33;98173.44;;;37.47;34.25
18795;BME280;29610;49.022;12.114;2023-07-09T10:09:13;98169.13;;;38.30;34.44
18795;BME280;29610;49.022;12.114;2023-07-09T10:11:53;98167.41;;;38.78;33.20
18795;BME280;29610;49.022;12.114;2023-07-09T10:14:33;98164.44;;;38.67;32.92
18795;BME280;29610;49.022;12.114;2023-07-09T10:17:17;98169.97;;;38.56;34.74
18795;BME280;29610;49.022;12.114;2023-07-09T10:19:55;98169.44;;;38.72;33.32
18795;BME280;29610;49.022;12.114;2023-07-09T10:22:43;98168.63;;;38.31;33.06
18795;BME280;29610;49.022;12.114;2023-07-09T10:25:30;98165.66;;;38.60;32.11
18795;BME280;29610;49.022;12.114;2023-07-09T10:28:32;98161.41;;;37.81;32.89
18795;BME280;29610;49.022;12.114;2023-07-09T10:31:14;98156.41;;;36.89;33.84
18795;BME280;29610;49.022;12.114;2023-07-09T10:34:03;98158.06;;;36.57;34.41
18795;BME280;29610;49.022;12.114;2023-07-09T10:36:53;98148.00;;;36.80;35.32
18795;BME280;29610;49.022;12.114;2023-07-09T10:39:34;98143.59;;;36.93;36.15
18795;BME280;29610;49.022;12.114;2023-07-09T10:42:21;98143.75;;;37.28;32.45
18795;BME280;29610;49.022;12.114;2023-07-09T10:44:57;98140.38;;;38.42;32.88
18795;BME280;29610;49.022;12.114;2023-07-09T10:47:35;98136.31;;;39.71;31.86
18795;BME280;29610;49.022;12.114;2023-07-09T10:50:12;98131.47;;;40.67;30.59
18795;BME280;29610;49.022;12.114;2023-07-09T10:52:50;98133.72;;;41.49;30.19
18795;BME280;29610;49.022;12.114;2023-07-09T10:55:29;98144.78;;;40.87;28.86
18795;BME280;29610;49.022;12.114;2023-07-09T10:58:02;98128.25;;;41.51;27.43
18795;BME280;29610;49.022;12.114;2023-07-09T11:00:36;98132.34;;;40.31;29.79
18795;BME280;29610;49.022;12.114;2023-07-09T11:03:17;98128.84;;;40.63;29.13
18795;BME280;29610;49.022;12.114;2023-07-09T11:05:49;98119.31;;;39.46;29.31
18795;BME280;29610;49.022;12.114;2023-07-09T11:08:25;98123.66;;;39.41;30.40
18795;BME280;29610;49.022;12.114;2023-07-09T11:11:03;98122.22;;;40.94;30.54
18795;BME280;29610;49.022;12.114;2023-07-09T11:13:41;98115.56;;;41.96;28.22
18795;BME280;29610;49.022;12.114;2023-07-09T11:16:26;98120.78;;;41.59;26.74
18795;BME280;29610;49.022;12.114;2023-07-09T11:19:01;98129.66;;;42.52;28.76
18795;BME280;29610;49.022;12.114;2023-07-09T11:21:30;98111.41;;;41.59;26.04
18795;BME280;29610;49.022;12.114;2023-07-09T11:24:00;98113.53;;;41.58;26.74
18795;BME280;29610;49.022;12.114;2023-07-09T11:26:32;98113.13;;;40.74;28.25
18795;BME280;29610;49.022;12.114;2023-07-09T11:29:15;98109.84;;;41.19;28.28
18795;BME280;29610;49.022;12.114;2023-07-09T11:31:46;98109.28;;;41.10;28.52
18795;BME280;29610;49.022;12.114;2023-07-09T11:34:20;98109.81;;;41.08;29.76
18795;BME280;29610;49.022;12.114;2023-07-09T11:36:57;98111.41;;;41.75;26.34
18795;BME280;29610;49.022;12.114;2023-07-09T11:39:30;98118.56;;;40.77;29.23
18795;BME280;29610;49.022;12.114;2023-07-09T11:41:59;98112.97;;;39.62;28.72
18795;BME280;29610;49.022;12.114;2023-07-09T11:44:30;98104.16;;;41.25;29.45
18795;BME280;29610;49.022;12.114;2023-07-09T11:47:21;98113.28;;;42.58;29.76
18795;BME280;29610;49.022;12.114;2023-07-09T11:49:57;98101.91;;;42.47;26.01
18795;BME280;29610;49.022;12.114;2023-07-09T11:52:32;98096.75;;;42.91;26.18
18795;BME280;29610;49.022;12.114;2023-07-09T11:55:21;98095.56;;;43.46;26.75
18795;BME280;29610;49.022;12.114;2023-07-09T11:57:55;98097.72;;;43.70;25.60
18795;BME280;29610;49.022;12.114;2023-07-09T12:00:28;98095.47;;;43.63;25.55
18795;BME280;29610;49.022;12.114;2023-07-09T12:02:58;98097.16;;;41.64;25.38
18795;BME280;29610;49.022;12.114;2023-07-09T12:05:29;98089.53;;;42.17;24.49
18795;BME280;29610;49.022;12.114;2023-07-09T12:07:59;98086.59;;;39.61;28.46
18795;BME280;29610;49.022;12.114;2023-07-09T12:10:34;98089.38;;;40.34;29.67
18795;BME280;29610;49.022;12.114;2023-07-09T12:13:04;98090.16;;;41.38;29.00
18795;BME280;29610;49.022;12.114;2023-07-09T12:15:32;98083.91;;;41.78;26.92
18795;BME280;29610;49.022;12.114;2023-07-09T12:18:10;98081.94;;;42.36;26.55
18795;BME280;29610;49.022;12.114;2023-07-09T12:20:45;98078.28;;;42.92;26.24
18795;BME280;29610;49.022;12.114;2023-07-09T12:23:23;98065.63;;;43.47;25.70
18795;BME280;29610;49.022;12.114;2023-07-09T12:25:54;98073.75;;;43.73;27.40
18795;BME280;29610;49.022;12.114;2023-07-09T12:28:23;98060.66;;;44.25;25.19
18795;BME280;29610;49.022;12.114;2023-07-09T12:30:52;98060.94;;;43.50;26.13
18795;BME280;29610;49.022;12.114;2023-07-09T12:33:23;98056.06;;;42.74;24.50
18795;BME280;29610;49.022;12.114;2023-07-09T12:35:58;98056.94;;;41.51;25.08
18795;BME280;29610;49.022;12.114;2023-07-09T12:38:30;98051.34;;;42.20;26.63
18795;BME280;29610;49.022;12.114;2023-07-09T12:41:04;98040.50;;;42.07;27.06
18795;BME280;29610;49.022;12.114;2023-07-09T12:43:33;98031.72;;;42.97;26.93
18795;BME280;29610;49.022;12.114;2023-07-09T12:46:02;98034.75;;;43.40;25.86
18795;BME280;29610;49.022;12.114;2023-07-09T12:48:31;98033.25;;;43.63;25.28
18795;BME280;29610;49.022;12.114;2023-07-09T12:51:08;98033.06;;;42.50;26.32
18795;BME280;29610;49.022;12.114;2023-07-09T12:53:39;98026.00;;;43.33;26.65
18795;BME280;29610;49.022;12.114;2023-07-09T12:56:13;98025.81;;;43.49;24.10
18795;BME280;29610;49.022;12.114;2023-07-09T12:58:44;98021.50;;;43.13;24.47
18795;BME280;29610;49.022;12.114;2023-07-09T13:01:16;98031.41;;;43.66;25.99
18795;BME280;29610;49.022;12.114;2023-07-09T13:03:55;98032.53;;;42.52;25.87
18795;BME280;29610;49.022;12.114;2023-07-09T13:06:33;98034.38;;;41.04;27.70
18795;BME280;29610;49.022;12.114;2023-07-09T13:09:15;98019.63;;;42.34;25.00
18795;BME280;29610;49.022;12.114;2023-07-09T13:11:46;98016.09;;;42.63;25.51